ADDS METAR Data INFO
IDs: Format: Raw Decoded Include TAF

Data at: 1509 UTC 21 Feb 2018

KCLW 201455Z AUTO 12009G15KT 10SM BKN020 BKN100 23/20 A3033 RMK AO2
KCLW 211435Z AUTO 13007G15KT 080V150 10SM SCT011 24/21 A3039 RMK AO2
KCLW 211415Z AUTO 12007G17KT 080V140 10SM SCT011 23/21 A3038 RMK AO2
KCLW 211355Z AUTO 12008KT 10SM BKN009 23/21 A3037 RMK AO2
KCLW 211335Z AUTO 11007KT 10SM SCT009 22/21 A3037 RMK AO2
KCLW 211315Z AUTO 12011G17KT 10SM BKN009 22/21 A3037 RMK AO2
KCLW 211255Z AUTO 12007KT 10SM BKN009 22/21 A3036 RMK AO2
KCLW 211235Z AUTO 13008KT 10SM BKN009 22/21 A3036 RMK AO2
KCLW 201515Z AUTO 12008G16KT 10SM BKN018 24/20 A3033 RMK AO2
KCLW 201455Z AUTO 12009G15KT 10SM BKN020 BKN100 23/20 A3033 RMK AO2
KCLW 201435Z AUTO 12008G16KT 10SM SCT012 BKN020 OVC100 23/20 A3033 RMK AO2
KCLW 201415Z AUTO 12011G15KT 10SM SCT012 OVC100 22/20 A3033 RMK AO2
KCLW 201355Z AUTO 11009KT 10SM SCT012 OVC100 22/20 A3032 RMK AO2
KCLW 201335Z AUTO 12005KT 10SM SCT012 OVC110 22/20 A3032 RMK AO2
KCLW 201315Z AUTO 11007KT 10SM OVC110 22/20 A3031 RMK AO2
KCLW 201255Z AUTO 11006KT 10SM SCT075 OVC110 21/20 A3031 RMK AO2
KCLW 201235Z AUTO 11007KT 10SM SCT012 SCT075 BKN110 21/20 A3030 RMK AO2
KCLW 201215Z AUTO 10006KT 10SM SCT012 21/20 A3029 RMK AO2
KCLW 201155Z AUTO 11008KT 10SM BKN012 21/20 A3029 RMK AO2
KCLW 201135Z AUTO 11008KT 10SM SCT012 21/20 A3028 RMK AO2
KCLW 201115Z AUTO 11007KT 10SM CLR 21/20 A3028 RMK AO2
KCLW 201055Z AUTO 11006KT 10SM CLR 21/20 A3027 RMK AO2
KCLW 201035Z AUTO 12008KT 10SM CLR 21/20 A3026 RMK AO2
KCLW 201015Z AUTO 12008KT 10SM CLR 21/20 A3026 RMK AO2
KCLW 200955Z AUTO 12006KT 10SM CLR 21/20 A3026 RMK AO2
KCLW 200935Z AUTO 11009KT 10SM SCT010 21/20 A3025 RMK AO2
KCLW 200915Z AUTO 11007KT 10SM CLR 21/20 A3025 RMK AO2
KCLW 200855Z AUTO 11006KT 10SM CLR 21/20 A3025 RMK AO2
KCLW 200835Z AUTO 12006KT 10SM CLR 21/20 A3025 RMK AO2
KCLW 200815Z AUTO 11007KT 10SM SCT012 21/20 A3025 RMK AO2
KCLW 200755Z AUTO 12009KT 10SM SCT012 SCT075 21/20 A3025 RMK AO2
KCLW 200735Z AUTO 11008KT 10SM SCT014 SCT075 22/20 A3026 RMK AO2
KCLW 200715Z AUTO 11007KT 10SM BKN014 22/20 A3026 RMK AO2
KCLW 200655Z AUTO 11008KT 10SM BKN014 BKN019 BKN024 22/20 A3026 RMK AO2
KCLW 200635Z AUTO 11007KT 10SM SCT016 SCT024 BKN070 22/20 A3026 RMK AO2
KCLW 200615Z AUTO 11005KT 10SM BKN070 22/19 A3026 RMK AO2
KCLW 200555Z AUTO 10006KT 10SM SCT070 22/19 A3026 RMK AO2
KCLW 200535Z AUTO 11006KT 10SM CLR 22/19 A3026 RMK AO2
KCLW 200515Z AUTO 11006KT 10SM CLR 22/19 A3027 RMK AO2
KCLW 200455Z AUTO 11006KT 10SM CLR 22/19 A3027 RMK AO2
KCLW 200435Z AUTO 10006KT 10SM CLR 22/19 A3027 RMK AO2
KCLW 200415Z AUTO 11005KT 10SM CLR 22/18 A3027 RMK AO2
KCLW 200355Z AUTO 11010G14KT 10SM CLR 23/18 A3027 RMK AO2
KCLW 200335Z AUTO 12007KT 10SM SCT060 23/18 A3027 RMK AO2
KCLW 200315Z AUTO 12005KT 10SM SCT060 23/18 A3027 RMK AO2